Time,TemperatureF,DewpointF,PressureIn,WindDirection,WindDirectionDegrees,WindSpeedMPH,WindSpeedGustMPH,Humidity,HourlyPrecipIn,Conditions,Clouds,dailyrainin,SolarRadiationWatts/m^2,SoftwareType,DateUTC
2013-04-23 00:07:00,65.5,31.3,29.49,North,-999,-999.0,-999.0,5,0.00,,,-99.99,0.0,Linux-Irox,2013-04-23 07:07:00,
2013-04-23 00:17:00,64.9,30.7,29.49,North,-999,-999.0,-999.0,5,0.00,,,-99.99,0.0,Linux-Irox,2013-04-23 07:17:00,
2013-04-23 00:27:00,64.9,30.7,29.49,North,-999,-999.0,-999.0,5,0.00,,,-99.99,0.0,Linux-Irox,2013-04-23 07:27:00,
2013-04-23 00:37:00,65.5,31.3,29.49,North,-999,-999.0,-999.0,5,0.00,,,-99.99,0.0,Linux-Irox,2013-04-23 07:37:00,
2013-04-23 00:47:00,65.3,31.1,29.49,North,-999,-999.0,-999.0,5,0.00,,,-99.99,0.0,Linux-Irox,2013-04-23 07:47:00,
2013-04-23 00:57:00,64.9,30.7,29.50,North,-999,-999.0,-999.0,5,0.00,,,-99.99,0.0,Linux-Irox,2013-04-23 07:57:00,
2013-04-23 01:07:00,65.3,31.1,29.50,North,-999,-999.0,-999.0,5,0.00,,,-99.99,0.0,Linux-Irox,2013-04-23 08:07:00,
2013-04-23 01:17:00,64.8,30.6,29.48,North,-999,-999.0,-999.0,5,0.00,,,-99.99,0.0,Linux-Irox,2013-04-23 08:17:00,
2013-04-23 01:27:00,63.7,29.5,29.48,North,-999,-999.0,-999.0,5,0.00,,,-99.99,0.0,Linux-Irox,2013-04-23 08:27:00,
2013-04-23 01:37:00,64.2,30.0,29.49,North,-999,-999.0,-999.0,5,0.00,,,-99.99,0.0,Linux-Irox,2013-04-23 08:37:00,
2013-04-23 01:47:00,63.9,29.7,29.49,North,-999,-999.0,-999.0,5,0.00,,,-99.99,0.0,Linux-Irox,2013-04-23 08:47:00,
2013-04-23 01:57:00,63.5,29.3,29.49,North,-999,-999.0,-999.0,5,0.00,,,-99.99,0.0,Linux-Irox,2013-04-23 08:57:00,
2013-04-23 02:07:00,63.9,29.7,29.49,North,-999,-999.0,-999.0,5,0.00,,,-99.99,0.0,Linux-Irox,2013-04-23 09:07:00,
2013-04-23 02:17:00,63.7,29.5,29.48,North,-999,-999.0,-999.0,5,0.00,,,-99.99,0.0,Linux-Irox,2013-04-23 09:17:00,
2013-04-23 02:27:00,63.3,29.1,29.48,North,-999,-999.0,-999.0,5,0.00,,,-99.99,0.0,Linux-Irox,2013-04-23 09:27:00,
2013-04-23 02:37:00,62.4,28.2,29.48,North,-999,-999.0,-999.0,5,0.00,,,-99.99,0.0,Linux-Irox,2013-04-23 09:37:00,
2013-04-23 02:47:00,62.2,28.0,29.48,North,-999,-999.0,-999.0,5,0.00,,,-99.99,0.0,Linux-Irox,2013-04-23 09:47:00,
2013-04-23 02:57:00,61.9,27.7,29.47,North,-999,-999.0,-999.0,5,0.00,,,-99.99,0.0,Linux-Irox,2013-04-23 09:57:00,
2013-04-23 03:07:00,62.1,27.9,29.47,North,-999,-999.0,-999.0,5,0.00,,,-99.99,0.0,Linux-Irox,2013-04-23 10:07:00,
2013-04-23 03:17:00,62.1,27.9,29.47,North,-999,-999.0,-999.0,5,0.00,,,-99.99,0.0,Linux-Irox,2013-04-23 10:17:00,
2013-04-23 03:27:00,61.3,27.1,29.47,North,-999,-999.0,-999.0,5,0.00,,,-99.99,0.0,Linux-Irox,2013-04-23 10:27:00,
2013-04-23 03:37:00,61.0,26.8,29.47,North,-999,-999.0,-999.0,5,0.00,,,-99.99,0.0,Linux-Irox,2013-04-23 10:37:00,
2013-04-23 03:47:00,61.5,27.3,29.47,North,-999,-999.0,-999.0,5,0.00,,,-99.99,0.0,Linux-Irox,2013-04-23 10:47:00,
2013-04-23 03:57:00,61.7,27.5,29.47,North,-999,-999.0,-999.0,5,0.00,,,-99.99,0.0,Linux-Irox,2013-04-23 10:57:00,
2013-04-23 04:07:00,60.3,26.1,29.47,North,-999,-999.0,-999.0,5,0.00,,,-99.99,0.0,Linux-Irox,2013-04-23 11:07:00,
2013-04-23 04:17:00,60.8,26.6,29.47,North,-999,-999.0,-999.0,5,0.00,,,-99.99,0.0,Linux-Irox,2013-04-23 11:17:00,
2013-04-23 04:27:00,60.4,26.2,29.47,North,-999,-999.0,-999.0,5,0.00,,,-99.99,0.0,Linux-Irox,2013-04-23 11:27:00,
2013-04-23 04:37:00,59.9,25.7,29.46,North,-999,-999.0,-999.0,5,0.00,,,-99.99,0.0,Linux-Irox,2013-04-23 11:37:00,
2013-04-23 04:47:00,59.9,25.7,29.46,North,-999,-999.0,-999.0,5,0.00,,,-99.99,0.0,Linux-Irox,2013-04-23 11:47:00,
2013-04-23 04:57:00,59.9,25.7,29.47,North,-999,-999.0,-999.0,5,0.00,,,-99.99,0.0,Linux-Irox,2013-04-23 11:57:00,
2013-04-23 05:07:00,58.3,24.1,29.47,North,-999,-999.0,-999.0,5,0.00,,,-99.99,0.0,Linux-Irox,2013-04-23 12:07:00,
2013-04-23 05:17:00,58.1,23.9,29.47,North,-999,-999.0,-999.0,5,0.00,,,-99.99,0.0,Linux-Irox,2013-04-23 12:17:00,
2013-04-23 05:27:00,56.3,22.1,29.47,North,-999,-999.0,-999.0,5,0.00,,,-99.99,0.0,Linux-Irox,2013-04-23 12:27:00,
2013-04-23 05:37:00,57.2,23.0,29.47,North,-999,-999.0,-999.0,5,0.00,,,-99.99,0.0,Linux-Irox,2013-04-23 12:37:00,
2013-04-23 05:47:00,57.2,23.0,29.47,North,-999,-999.0,-999.0,5,0.00,,,-99.99,0.0,Linux-Irox,2013-04-23 12:47:00,
2013-04-23 05:57:00,55.9,21.7,29.46,North,-999,-999.0,-999.0,5,0.00,,,-99.99,0.0,Linux-Irox,2013-04-23 12:57:00,
2013-04-23 06:01:00,57.9,23.7,29.46,North,-999,-999.0,-999.0,5,0.00,,,-99.99,0.0,Linux-Irox,2013-04-23 13:01:00,
2013-04-23 06:07:00,57.9,23.7,29.46,North,-999,-999.0,-999.0,5,0.00,,,-99.99,0.0,Linux-Irox,2013-04-23 13:07:00,
2013-04-23 06:16:00,56.1,21.9,29.46,North,-999,-999.0,-999.0,5,0.00,,,-99.99,0.0,Linux-Irox,2013-04-23 13:16:00,
2013-04-23 06:17:00,56.1,21.9,29.45,North,-999,-999.0,-999.0,5,0.00,,,-99.99,0.0,Linux-Irox,2013-04-23 13:17:00,
2013-04-23 06:27:00,57.0,22.8,29.45,North,-999,-999.0,-999.0,5,0.00,,,-99.99,0.0,Linux-Irox,2013-04-23 13:27:00,
2013-04-23 06:31:00,56.8,22.6,29.45,North,-999,-999.0,-999.0,5,0.00,,,-99.99,0.0,Linux-Irox,2013-04-23 13:31:00,
2013-04-23 06:37:00,57.9,23.7,29.46,North,-999,-999.0,-999.0,5,0.00,,,-99.99,0.0,Linux-Irox,2013-04-23 13:37:00,
2013-04-23 06:46:00,56.1,21.9,29.46,North,-999,-999.0,-999.0,5,0.00,,,-99.99,0.0,Linux-Irox,2013-04-23 13:46:00,
2013-04-23 06:47:00,55.8,21.6,29.46,North,-999,-999.0,-999.0,5,0.00,,,-99.99,0.0,Linux-Irox,2013-04-23 13:47:00,
2013-04-23 06:57:00,57.2,23.0,29.46,North,-999,-999.0,-999.0,5,0.00,,,-99.99,0.0,Linux-Irox,2013-04-23 13:57:00,
2013-04-23 07:01:00,57.2,23.0,29.46,North,-999,-999.0,-999.0,5,0.00,,,-99.99,0.0,Linux-Irox,2013-04-23 14:01:00,
2013-04-23 07:07:00,57.2,23.0,29.46,North,-999,-999.0,-999.0,5,0.00,,,-99.99,0.0,Linux-Irox,2013-04-23 14:07:00,
2013-04-23 07:16:00,58.5,24.3,29.46,North,-999,-999.0,-999.0,5,0.00,,,-99.99,0.0,Linux-Irox,2013-04-23 14:16:00,
2013-04-23 07:17:00,58.5,24.3,29.46,North,-999,-999.0,-999.0,5,0.00,,,-99.99,0.0,Linux-Irox,2013-04-23 14:17:00,
2013-04-23 07:27:00,62.1,27.9,29.46,North,-999,-999.0,-999.0,5,0.00,,,-99.99,0.0,Linux-Irox,2013-04-23 14:27:00,
2013-04-23 07:31:00,63.5,29.3,29.46,North,-999,-999.0,-999.0,5,0.00,,,-99.99,0.0,Linux-Irox,2013-04-23 14:31:00,
2013-04-23 07:37:00,65.1,30.9,29.45,North,-999,-999.0,-999.0,5,0.00,,,-99.99,0.0,Linux-Irox,2013-04-23 14:37:00,
2013-04-23 07:46:00,67.8,33.6,29.45,North,-999,-999.0,-999.0,5,0.00,,,-99.99,0.0,Linux-Irox,2013-04-23 14:46:00,
2013-04-23 07:47:00,68.5,34.3,29.45,North,-999,-999.0,-999.0,5,0.00,,,-99.99,0.0,Linux-Irox,2013-04-23 14:47:00,
2013-04-23 07:57:00,70.2,36.0,29.46,North,-999,-999.0,-999.0,5,0.00,,,-99.99,0.0,Linux-Irox,2013-04-23 14:57:00,
2013-04-23 08:01:00,70.3,36.1,29.46,North,-999,-999.0,-999.0,5,0.00,,,-99.99,0.0,Linux-Irox,2013-04-23 15:01:00,
2013-04-23 08:07:00,71.1,36.9,29.46,North,-999,-999.0,-999.0,5,0.00,,,-99.99,0.0,Linux-Irox,2013-04-23 15:07:00,
2013-04-23 08:16:00,72.1,37.9,29.46,North,-999,-999.0,-999.0,5,0.00,,,-99.99,0.0,Linux-Irox,2013-04-23 15:16:00,
2013-04-23 08:17:00,72.1,37.9,29.46,North,-999,-999.0,-999.0,5,0.00,,,-99.99,0.0,Linux-Irox,2013-04-23 15:17:00,
2013-04-23 08:27:00,72.3,38.1,29.46,North,-999,-999.0,-999.0,5,0.00,,,-99.99,0.0,Linux-Irox,2013-04-23 15:27:00,
2013-04-23 08:31:00,74.5,40.3,29.46,North,-999,-999.0,-999.0,5,0.00,,,-99.99,0.0,Linux-Irox,2013-04-23 15:31:00,
2013-04-23 08:37:00,74.8,40.6,29.47,North,-999,-999.0,-999.0,5,0.00,,,-99.99,0.0,Linux-Irox,2013-04-23 15:37:00,
2013-04-23 08:46:00,71.4,37.2,29.47,North,-999,-999.0,-999.0,5,0.00,,,-99.99,0.0,Linux-Irox,2013-04-23 15:46:00,
2013-04-23 08:47:00,72.3,38.1,29.47,North,-999,-999.0,-999.0,5,0.00,,,-99.99,0.0,Linux-Irox,2013-04-23 15:47:00,
2013-04-23 08:57:00,72.9,38.7,29.47,North,-999,-999.0,-999.0,5,0.00,,,-99.99,0.0,Linux-Irox,2013-04-23 15:57:00,
2013-04-23 09:01:00,73.6,39.4,29.47,North,-999,-999.0,-999.0,5,0.00,,,-99.99,0.0,Linux-Irox,2013-04-23 16:01:00,
2013-04-23 09:07:00,73.6,39.4,29.47,North,-999,-999.0,-999.0,5,0.00,,,-99.99,0.0,Linux-Irox,2013-04-23 16:07:00,
2013-04-23 09:16:00,75.2,41.0,29.47,North,-999,-999.0,-999.0,5,0.00,,,-99.99,0.0,Linux-Irox,2013-04-23 16:16:00,
2013-04-23 09:17:00,75.2,41.0,29.46,North,-999,-999.0,-999.0,5,0.00,,,-99.99,0.0,Linux-Irox,2013-04-23 16:17:00,
2013-04-23 09:27:00,73.8,39.6,29.46,North,-999,-999.0,-999.0,5,0.00,,,-99.99,0.0,Linux-Irox,2013-04-23 16:27:00,
2013-04-23 09:31:00,74.5,40.3,29.46,North,-999,-999.0,-999.0,5,0.00,,,-99.99,0.0,Linux-Irox,2013-04-23 16:31:00,
2013-04-23 09:37:00,75.6,41.4,29.46,North,-999,-999.0,-999.0,5,0.00,,,-99.99,0.0,Linux-Irox,2013-04-23 16:37:00,
2013-04-23 09:46:00,75.4,41.2,29.46,North,-999,-999.0,-999.0,5,0.00,,,-99.99,0.0,Linux-Irox,2013-04-23 16:46:00,
2013-04-23 09:47:00,75.6,41.4,29.46,North,-999,-999.0,-999.0,5,0.00,,,-99.99,0.0,Linux-Irox,2013-04-23 16:47:00,
2013-04-23 09:57:00,75.0,40.8,29.47,North,-999,-999.0,-999.0,5,0.00,,,-99.99,0.0,Linux-Irox,2013-04-23 16:57:00,
2013-04-23 10:01:00,75.2,41.0,29.47,North,-999,-999.0,-999.0,5,0.00,,,-99.99,0.0,Linux-Irox,2013-04-23 17:01:00,
2013-04-23 10:07:00,75.0,40.8,29.47,North,-999,-999.0,-999.0,5,0.00,,,-99.99,0.0,Linux-Irox,2013-04-23 17:07:00,
2013-04-23 10:16:00,77.5,43.3,29.47,North,-999,-999.0,-999.0,5,0.00,,,-99.99,0.0,Linux-Irox,2013-04-23 17:16:00,
2013-04-23 10:17:00,77.5,43.3,29.48,North,-999,-999.0,-999.0,5,0.00,,,-99.99,0.0,Linux-Irox,2013-04-23 17:17:00,
2013-04-23 10:27:00,77.2,43.0,29.48,North,-999,-999.0,-999.0,5,0.00,,,-99.99,0.0,Linux-Irox,2013-04-23 17:27:00,
2013-04-23 10:31:00,77.5,43.3,29.48,North,-999,-999.0,-999.0,5,0.00,,,-99.99,0.0,Linux-Irox,2013-04-23 17:31:00,
2013-04-23 10:37:00,77.5,43.3,29.48,North,-999,-999.0,-999.0,5,0.00,,,-99.99,0.0,Linux-Irox,2013-04-23 17:37:00,
2013-04-23 10:46:00,77.2,43.0,29.48,North,-999,-999.0,-999.0,5,0.00,,,-99.99,0.0,Linux-Irox,2013-04-23 17:46:00,
2013-04-23 10:47:00,77.4,43.2,29.48,North,-999,-999.0,-999.0,5,0.00,,,-99.99,0.0,Linux-Irox,2013-04-23 17:47:00,
2013-04-23 10:57:00,77.0,42.8,29.48,North,-999,-999.0,-999.0,5,0.00,,,-99.99,0.0,Linux-Irox,2013-04-23 17:57:00,
2013-04-23 11:01:00,77.2,43.0,29.48,North,-999,-999.0,-999.0,5,0.00,,,-99.99,0.0,Linux-Irox,2013-04-23 18:01:00,
2013-04-23 11:07:00,77.4,43.2,29.48,North,-999,-999.0,-999.0,5,0.00,,,-99.99,0.0,Linux-Irox,2013-04-23 18:07:00,
2013-04-23 11:16:00,77.4,43.2,29.48,North,-999,-999.0,-999.0,5,0.00,,,-99.99,0.0,Linux-Irox,2013-04-23 18:16:00,
2013-04-23 11:17:00,77.4,43.2,29.48,North,-999,-999.0,-999.0,5,0.00,,,-99.99,0.0,Linux-Irox,2013-04-23 18:17:00,
2013-04-23 11:27:00,77.7,43.5,29.48,North,-999,-999.0,-999.0,5,0.00,,,-99.99,0.0,Linux-Irox,2013-04-23 18:27:00,
2013-04-23 11:31:00,77.7,43.5,29.48,North,-999,-999.0,-999.0,5,0.00,,,-99.99,0.0,Linux-Irox,2013-04-23 18:31:00,
2013-04-23 11:37:00,77.2,43.0,29.47,North,-999,-999.0,-999.0,5,0.00,,,-99.99,0.0,Linux-Irox,2013-04-23 18:37:00,
2013-04-23 11:46:00,77.4,43.2,29.47,North,-999,-999.0,-999.0,5,0.00,,,-99.99,0.0,Linux-Irox,2013-04-23 18:46:00,
2013-04-23 11:47:00,77.2,43.0,29.47,North,-999,-999.0,-999.0,5,0.00,,,-99.99,0.0,Linux-Irox,2013-04-23 18:47:00,
2013-04-23 11:57:00,77.4,43.2,29.48,North,-999,-999.0,-999.0,5,0.00,,,-99.99,0.0,Linux-Irox,2013-04-23 18:57:00,
2013-04-23 12:01:00,77.4,43.2,29.48,North,-999,-999.0,-999.0,5,0.00,,,-99.99,0.0,Linux-Irox,2013-04-23 19:01:00,
2013-04-23 12:07:00,77.4,43.2,29.48,North,-999,-999.0,-999.0,5,0.00,,,-99.99,0.0,Linux-Irox,2013-04-23 19:07:00,
2013-04-23 12:16:00,77.2,43.0,29.48,North,-999,-999.0,-999.0,5,0.00,,,-99.99,0.0,Linux-Irox,2013-04-23 19:16:00,
2013-04-23 12:17:00,77.2,43.0,29.47,North,-999,-999.0,-999.0,5,0.00,,,-99.99,0.0,Linux-Irox,2013-04-23 19:17:00,
2013-04-23 12:27:00,76.8,42.6,29.47,North,-999,-999.0,-999.0,5,0.00,,,-99.99,0.0,Linux-Irox,2013-04-23 19:27:00,
2013-04-23 12:31:00,77.0,42.8,29.47,North,-999,-999.0,-999.0,5,0.00,,,-99.99,0.0,Linux-Irox,2013-04-23 19:31:00,
2013-04-23 12:37:00,77.2,43.0,29.47,North,-999,-999.0,-999.0,5,0.00,,,-99.99,0.0,Linux-Irox,2013-04-23 19:37:00,
2013-04-23 12:46:00,76.5,42.3,29.47,North,-999,-999.0,-999.0,5,0.00,,,-99.99,0.0,Linux-Irox,2013-04-23 19:46:00,
2013-04-23 12:47:00,76.6,42.4,29.47,North,-999,-999.0,-999.0,5,0.00,,,-99.99,0.0,Linux-Irox,2013-04-23 19:47:00,
2013-04-23 12:57:00,77.0,42.8,29.46,North,-999,-999.0,-999.0,5,0.00,,,-99.99,0.0,Linux-Irox,2013-04-23 19:57:00,
2013-04-23 13:01:00,77.4,43.2,29.46,North,-999,-999.0,-999.0,5,0.00,,,-99.99,0.0,Linux-Irox,2013-04-23 20:01:00,
2013-04-23 13:07:00,77.4,43.2,29.46,North,-999,-999.0,-999.0,5,0.00,,,-99.99,0.0,Linux-Irox,2013-04-23 20:07:00,
2013-04-23 13:16:00,77.2,43.0,29.46,North,-999,-999.0,-999.0,5,0.00,,,-99.99,0.0,Linux-Irox,2013-04-23 20:16:00,
2013-04-23 13:17:00,77.2,43.0,29.46,North,-999,-999.0,-999.0,5,0.00,,,-99.99,0.0,Linux-Irox,2013-04-23 20:17:00,
2013-04-23 13:27:00,77.2,43.0,29.46,North,-999,-999.0,-999.0,5,0.00,,,-99.99,0.0,Linux-Irox,2013-04-23 20:27:00,
2013-04-23 13:31:00,77.2,43.0,29.46,North,-999,-999.0,-999.0,5,0.00,,,-99.99,0.0,Linux-Irox,2013-04-23 20:31:00,
2013-04-23 13:37:00,77.0,42.8,29.46,North,-999,-999.0,-999.0,5,0.00,,,-99.99,0.0,Linux-Irox,2013-04-23 20:37:00,
2013-04-23 13:46:00,77.4,43.2,29.46,North,-999,-999.0,-999.0,5,0.00,,,-99.99,0.0,Linux-Irox,2013-04-23 20:46:00,
2013-04-23 13:47:00,77.2,43.0,29.46,North,-999,-999.0,-999.0,5,0.00,,,-99.99,0.0,Linux-Irox,2013-04-23 20:47:00,
2013-04-23 13:57:00,77.4,43.2,29.46,North,-999,-999.0,-999.0,5,0.00,,,-99.99,0.0,Linux-Irox,2013-04-23 20:57:00,
2013-04-23 14:01:00,77.2,43.0,29.46,North,-999,-999.0,-999.0,5,0.00,,,-99.99,0.0,Linux-Irox,2013-04-23 21:01:00,
2013-04-23 14:07:00,77.4,43.2,29.46,North,-999,-999.0,-999.0,5,0.00,,,-99.99,0.0,Linux-Irox,2013-04-23 21:07:00,
2013-04-23 14:16:00,77.2,43.0,29.46,North,-999,-999.0,-999.0,5,0.00,,,-99.99,0.0,Linux-Irox,2013-04-23 21:16:00,
2013-04-23 14:17:00,77.2,43.0,29.46,North,-999,-999.0,-999.0,5,0.00,,,-99.99,0.0,Linux-Irox,2013-04-23 21:17:00,
2013-04-23 14:27:00,78.1,43.9,29.46,North,-999,-999.0,-999.0,5,0.00,,,-99.99,0.0,Linux-Irox,2013-04-23 21:27:00,
2013-04-23 14:31:00,77.9,43.7,29.46,North,-999,-999.0,-999.0,5,0.00,,,-99.99,0.0,Linux-Irox,2013-04-23 21:31:00,
2013-04-23 14:37:00,77.9,43.7,29.45,North,-999,-999.0,-999.0,5,0.00,,,-99.99,0.0,Linux-Irox,2013-04-23 21:37:00,
2013-04-23 14:46:00,77.2,43.0,29.45,North,-999,-999.0,-999.0,5,0.00,,,-99.99,0.0,Linux-Irox,2013-04-23 21:46:00,
2013-04-23 14:47:00,77.7,43.5,29.45,North,-999,-999.0,-999.0,5,0.00,,,-99.99,0.0,Linux-Irox,2013-04-23 21:47:00,
2013-04-23 14:57:00,77.7,43.5,29.45,North,-999,-999.0,-999.0,5,0.00,,,-99.99,0.0,Linux-Irox,2013-04-23 21:57:00,
2013-04-23 15:01:00,77.7,43.5,29.45,North,-999,-999.0,-999.0,5,0.00,,,-99.99,0.0,Linux-Irox,2013-04-23 22:01:00,
2013-04-23 15:07:00,77.9,43.7,29.45,North,-999,-999.0,-999.0,5,0.00,,,-99.99,0.0,Linux-Irox,2013-04-23 22:07:00,
2013-04-23 15:16:00,77.9,43.7,29.45,North,-999,-999.0,-999.0,5,0.00,,,-99.99,0.0,Linux-Irox,2013-04-23 22:16:00,
2013-04-23 15:17:00,77.9,43.7,29.45,North,-999,-999.0,-999.0,5,0.00,,,-99.99,0.0,Linux-Irox,2013-04-23 22:17:00,
2013-04-23 15:27:00,77.4,43.2,29.45,North,-999,-999.0,-999.0,5,0.00,,,-99.99,0.0,Linux-Irox,2013-04-23 22:27:00,
2013-04-23 15:31:00,77.0,42.8,29.45,North,-999,-999.0,-999.0,5,0.00,,,-99.99,0.0,Linux-Irox,2013-04-23 22:31:00,
2013-04-23 15:37:00,77.0,42.8,29.43,North,-999,-999.0,-999.0,5,0.00,,,-99.99,0.0,Linux-Irox,2013-04-23 22:37:00,
2013-04-23 15:46:00,76.1,41.9,29.43,North,-999,-999.0,-999.0,5,0.00,,,-99.99,0.0,Linux-Irox,2013-04-23 22:46:00,
2013-04-23 15:47:00,75.7,41.5,29.43,North,-999,-999.0,-999.0,5,0.00,,,-99.99,0.0,Linux-Irox,2013-04-23 22:47:00,
2013-04-23 15:57:00,75.9,41.7,29.43,North,-999,-999.0,-999.0,5,0.00,,,-99.99,0.0,Linux-Irox,2013-04-23 22:57:00,
2013-04-23 16:01:00,75.7,41.5,29.43,North,-999,-999.0,-999.0,5,0.00,,,-99.99,0.0,Linux-Irox,2013-04-23 23:01:00,
2013-04-23 16:07:00,75.2,41.0,29.43,North,-999,-999.0,-999.0,5,0.00,,,-99.99,0.0,Linux-Irox,2013-04-23 23:07:00,
2013-04-23 16:16:00,75.0,40.8,29.43,North,-999,-999.0,-999.0,5,0.00,,,-99.99,0.0,Linux-Irox,2013-04-23 23:16:00,
2013-04-23 16:17:00,75.0,40.8,29.43,North,-999,-999.0,-999.0,5,0.00,,,-99.99,0.0,Linux-Irox,2013-04-23 23:17:00,
2013-04-23 16:27:00,75.0,40.8,29.43,North,-999,-999.0,-999.0,5,0.00,,,-99.99,0.0,Linux-Irox,2013-04-23 23:27:00,
2013-04-23 16:31:00,74.8,40.6,29.43,North,-999,-999.0,-999.0,5,0.00,,,-99.99,0.0,Linux-Irox,2013-04-23 23:31:00,
2013-04-23 16:37:00,74.7,40.5,29.42,North,-999,-999.0,-999.0,5,0.00,,,-99.99,0.0,Linux-Irox,2013-04-23 23:37:00,
2013-04-23 16:46:00,74.8,40.6,29.42,North,-999,-999.0,-999.0,5,0.00,,,-99.99,0.0,Linux-Irox,2013-04-23 23:46:00,
2013-04-23 16:47:00,74.7,40.5,29.42,North,-999,-999.0,-999.0,5,0.00,,,-99.99,0.0,Linux-Irox,2013-04-23 23:47:00,
2013-04-23 16:57:00,74.3,40.1,29.41,North,-999,-999.0,-999.0,5,0.00,,,-99.99,0.0,Linux-Irox,2013-04-23 23:57:00,
2013-04-23 17:01:00,74.1,39.9,29.41,North,-999,-999.0,-999.0,5,0.00,,,-99.99,0.0,Linux-Irox,2013-04-24 00:01:00,
2013-04-23 17:07:00,73.9,39.7,29.41,North,-999,-999.0,-999.0,5,0.00,,,-99.99,0.0,Linux-Irox,2013-04-24 00:07:00,
2013-04-23 17:16:00,73.8,39.6,29.41,North,-999,-999.0,-999.0,5,0.00,,,-99.99,0.0,Linux-Irox,2013-04-24 00:16:00,
2013-04-23 17:17:00,73.8,39.6,29.42,North,-999,-999.0,-999.0,5,0.00,,,-99.99,0.0,Linux-Irox,2013-04-24 00:17:00,
2013-04-23 17:27:00,73.2,39.0,29.42,North,-999,-999.0,-999.0,5,0.00,,,-99.99,0.0,Linux-Irox,2013-04-24 00:27:00,
2013-04-23 17:31:00,72.9,38.7,29.42,North,-999,-999.0,-999.0,5,0.00,,,-99.99,0.0,Linux-Irox,2013-04-24 00:31:00,
2013-04-23 17:37:00,72.7,38.5,29.40,North,-999,-999.0,-999.0,5,0.00,,,-99.99,0.0,Linux-Irox,2013-04-24 00:37:00,
2013-04-23 17:46:00,72.1,37.9,29.40,North,-999,-999.0,-999.0,5,0.00,,,-99.99,0.0,Linux-Irox,2013-04-24 00:46:00,
2013-04-23 17:47:00,72.1,37.9,29.40,North,-999,-999.0,-999.0,5,0.00,,,-99.99,0.0,Linux-Irox,2013-04-24 00:47:00,
2013-04-23 17:57:00,71.8,37.6,29.42,North,-999,-999.0,-999.0,5,0.00,,,-99.99,0.0,Linux-Irox,2013-04-24 00:57:00,
2013-04-23 18:01:00,71.6,37.4,29.42,North,-999,-999.0,-999.0,5,0.00,,,-99.99,0.0,Linux-Irox,2013-04-24 01:01:00,
2013-04-23 18:07:00,71.4,37.2,29.42,North,-999,-999.0,-999.0,5,0.00,,,-99.99,0.0,Linux-Irox,2013-04-24 01:07:00,
2013-04-23 18:16:00,71.1,36.9,29.42,North,-999,-999.0,-999.0,5,0.00,,,-99.99,0.0,Linux-Irox,2013-04-24 01:16:00,
2013-04-23 18:17:00,71.1,36.9,29.43,North,-999,-999.0,-999.0,5,0.00,,,-99.99,0.0,Linux-Irox,2013-04-24 01:17:00,
2013-04-23 18:27:00,70.0,35.8,29.43,North,-999,-999.0,-999.0,5,0.00,,,-99.99,0.0,Linux-Irox,2013-04-24 01:27:00,
2013-04-23 18:31:00,69.8,35.6,29.43,North,-999,-999.0,-999.0,5,0.00,,,-99.99,0.0,Linux-Irox,2013-04-24 01:31:00,
2013-04-23 18:37:00,69.4,35.2,29.43,North,-999,-999.0,-999.0,5,0.00,,,-99.99,0.0,Linux-Irox,2013-04-24 01:37:00,
2013-04-23 18:46:00,68.7,34.5,29.43,North,-999,-999.0,-999.0,5,0.00,,,-99.99,0.0,Linux-Irox,2013-04-24 01:46:00,
2013-04-23 18:47:00,68.5,34.3,29.43,North,-999,-999.0,-999.0,5,0.00,,,-99.99,0.0,Linux-Irox,2013-04-24 01:47:00,
2013-04-23 18:57:00,68.0,33.8,29.44,North,-999,-999.0,-999.0,5,0.00,,,-99.99,0.0,Linux-Irox,2013-04-24 01:57:00,
2013-04-23 19:01:00,67.5,33.3,29.44,North,-999,-999.0,-999.0,5,0.00,,,-99.99,0.0,Linux-Irox,2013-04-24 02:01:00,
2013-04-23 19:07:00,66.7,32.5,29.44,North,-999,-999.0,-999.0,5,0.00,,,-99.99,0.0,Linux-Irox,2013-04-24 02:07:00,
2013-04-23 19:16:00,65.7,31.5,29.44,North,-999,-999.0,-999.0,5,0.00,,,-99.99,0.0,Linux-Irox,2013-04-24 02:16:00,
2013-04-23 19:17:00,65.7,31.5,29.44,North,-999,-999.0,-999.0,5,0.00,,,-99.99,0.0,Linux-Irox,2013-04-24 02:17:00,
2013-04-23 19:27:00,64.4,30.2,29.44,North,-999,-999.0,-999.0,5,0.00,,,-99.99,0.0,Linux-Irox,2013-04-24 02:27:00,
2013-04-23 19:31:00,64.0,29.8,29.44,North,-999,-999.0,-999.0,5,0.00,,,-99.99,0.0,Linux-Irox,2013-04-24 02:31:00,
2013-04-23 19:37:00,63.7,29.5,29.44,North,-999,-999.0,-999.0,5,0.00,,,-99.99,0.0,Linux-Irox,2013-04-24 02:37:00,
2013-04-23 19:46:00,62.8,28.6,29.44,North,-999,-999.0,-999.0,5,0.00,,,-99.99,0.0,Linux-Irox,2013-04-24 02:46:00,
2013-04-23 19:47:00,62.6,28.4,29.44,North,-999,-999.0,-999.0,5,0.00,,,-99.99,0.0,Linux-Irox,2013-04-24 02:47:00,
2013-04-23 19:57:00,62.1,27.9,29.45,North,-999,-999.0,-999.0,5,0.00,,,-99.99,0.0,Linux-Irox,2013-04-24 02:57:00,
2013-04-23 20:01:00,61.7,27.5,29.45,North,-999,-999.0,-999.0,5,0.00,,,-99.99,0.0,Linux-Irox,2013-04-24 03:01:00,
2013-04-23 20:07:00,61.2,27.0,29.45,North,-999,-999.0,-999.0,5,0.00,,,-99.99,0.0,Linux-Irox,2013-04-24 03:07:00,
2013-04-23 20:17:00,60.8,26.6,29.45,North,-999,-999.0,-999.0,5,0.00,,,-99.99,0.0,Linux-Irox,2013-04-24 03:17:00,
2013-04-23 20:27:00,60.4,26.2,29.45,North,-999,-999.0,-999.0,5,0.00,,,-99.99,0.0,Linux-Irox,2013-04-24 03:27:00,
2013-04-23 20:37:00,59.9,25.7,29.44,North,-999,-999.0,-999.0,5,0.00,,,-99.99,0.0,Linux-Irox,2013-04-24 03:37:00,
2013-04-23 20:47:00,59.7,25.5,29.44,North,-999,-999.0,-999.0,5,0.00,,,-99.99,0.0,Linux-Irox,2013-04-24 03:47:00,
2013-04-23 20:57:00,59.2,25.0,29.45,North,-999,-999.0,-999.0,5,0.00,,,-99.99,0.0,Linux-Irox,2013-04-24 03:57:00,
2013-04-23 21:07:00,58.5,24.3,29.45,North,-999,-999.0,-999.0,5,0.00,,,-99.99,0.0,Linux-Irox,2013-04-24 04:07:00,
2013-04-23 21:17:00,58.3,24.1,29.45,North,-999,-999.0,-999.0,5,0.00,,,-99.99,0.0,Linux-Irox,2013-04-24 04:17:00,
2013-04-23 21:27:00,57.7,23.5,29.45,North,-999,-999.0,-999.0,5,0.00,,,-99.99,0.0,Linux-Irox,2013-04-24 04:27:00,
2013-04-23 21:37:00,57.4,23.2,29.45,North,-999,-999.0,-999.0,5,0.00,,,-99.99,0.0,Linux-Irox,2013-04-24 04:37:00,
2013-04-23 21:47:00,57.0,22.8,29.45,North,-999,-999.0,-999.0,5,0.00,,,-99.99,0.0,Linux-Irox,2013-04-24 04:47:00,
2013-04-23 21:57:00,57.0,22.8,29.46,North,-999,-999.0,-999.0,5,0.00,,,-99.99,0.0,Linux-Irox,2013-04-24 04:57:00,
2013-04-23 22:07:00,56.8,22.6,29.46,North,-999,-999.0,-999.0,5,0.00,,,-99.99,0.0,Linux-Irox,2013-04-24 05:07:00,
2013-04-23 22:17:00,56.5,22.3,29.46,North,-999,-999.0,-999.0,5,0.00,,,-99.99,0.0,Linux-Irox,2013-04-24 05:17:00,
2013-04-23 22:27:00,56.1,21.9,29.46,North,-999,-999.0,-999.0,5,0.00,,,-99.99,0.0,Linux-Irox,2013-04-24 05:27:00,
2013-04-23 22:37:00,55.9,21.7,29.45,North,-999,-999.0,-999.0,5,0.00,,,-99.99,0.0,Linux-Irox,2013-04-24 05:37:00,
2013-04-23 22:47:00,55.6,21.4,29.45,North,-999,-999.0,-999.0,5,0.00,,,-99.99,0.0,Linux-Irox,2013-04-24 05:47:00,
2013-04-23 22:57:00,55.6,21.4,29.46,North,-999,-999.0,-999.0,5,0.00,,,-99.99,0.0,Linux-Irox,2013-04-24 05:57:00,
2013-04-23 23:07:00,55.4,21.2,29.46,North,-999,-999.0,-999.0,5,0.00,,,-99.99,0.0,Linux-Irox,2013-04-24 06:07:00,
2013-04-23 23:17:00,55.6,21.4,29.45,North,-999,-999.0,-999.0,5,0.00,,,-99.99,0.0,Linux-Irox,2013-04-24 06:17:00,
2013-04-23 23:27:00,55.6,21.4,29.45,North,-999,-999.0,-999.0,5,0.00,,,-99.99,0.0,Linux-Irox,2013-04-24 06:27:00,
2013-04-23 23:37:00,55.0,20.8,29.45,North,-999,-999.0,-999.0,5,0.00,,,-99.99,0.0,Linux-Irox,2013-04-24 06:37:00,
2013-04-23 23:47:00,54.5,20.7,29.45,North,-999,-999.0,-999.0,6,0.00,,,-99.99,0.0,Linux-Irox,2013-04-24 06:47:00,
2013-04-23 23:57:00,53.8,19.9,29.46,North,-999,-999.0,-999.0,6,0.00,,,-99.99,0.0,Linux-Irox,2013-04-24 06:57:00,